createdAt,value
2022-12-23T00:00:10.714Z,177.85
2022-12-23T00:00:33.487Z,199.90
2022-12-23T00:00:56.631Z,253.88
2022-12-23T00:01:19.480Z,198.05
2022-12-23T00:01:42.447Z,169.68
2022-12-23T00:02:05.500Z,179.88
2022-12-23T00:02:30.714Z,168.25
2022-12-23T00:02:53.917Z,141.77
2022-12-23T00:03:16.870Z,149.73
2022-12-23T00:03:40.046Z,158.00
2022-12-23T00:04:03.103Z,188.10
2022-12-23T00:04:25.978Z,173.95
2022-12-23T00:04:48.847Z,164.02
2022-12-23T00:05:11.959Z,181.80
2022-12-23T00:05:38.088Z,236.70
2022-12-23T00:06:01.675Z,139.82
2022-12-23T00:06:24.431Z,194.32
2022-12-23T00:06:47.234Z,237.40
2022-12-23T00:07:10.036Z,209.13
2022-12-23T00:07:32.757Z,206.98
2022-12-23T00:07:55.473Z,301.48
2022-12-23T00:08:18.247Z,237.20
2022-12-23T00:08:41.134Z,159.27
2022-12-23T00:09:04.154Z,165.18
2022-12-23T00:09:26.911Z,172.82
2022-12-23T00:09:49.667Z,186.15
2022-12-23T00:10:12.496Z,135.98
2022-12-23T00:10:35.374Z,119.25
2022-12-23T00:10:58.172Z,187.82
2022-12-23T00:11:20.948Z,202.55
2022-12-23T00:12:03.938Z,155.73
2022-12-23T00:12:45.299Z,323.52
2022-12-23T00:13:26.614Z,367.80
2022-12-23T00:14:12.127Z,136.18
2022-12-23T00:14:53.416Z,334.02
2022-12-23T00:15:16.308Z,239.45
2022-12-23T00:15:39.065Z,151.77
2022-12-23T00:16:03.451Z,190.93
2022-12-23T00:16:26.256Z,208.45
2022-12-23T00:16:50.309Z,169.95
2022-12-23T00:17:28.616Z,159.70
2022-12-23T00:17:51.580Z,188.73
2022-12-23T00:18:14.289Z,253.63
2022-12-23T00:18:37.050Z,302.02
2022-12-23T00:18:59.780Z,213.25
2022-12-23T00:19:22.493Z,195.85
2022-12-23T00:19:45.249Z,280.27
2022-12-23T00:20:09.938Z,341.48
2022-12-23T00:20:34.442Z,175.10
2022-12-23T00:21:06.662Z,155.80
2022-12-23T00:21:31.470Z,197.05
2022-12-23T00:21:54.196Z,156.98
2022-12-23T00:22:17.212Z,197.43
2022-12-23T00:22:58.647Z,202.82
2022-12-23T00:23:21.469Z,191.25
2022-12-23T00:23:45.464Z,200.50
2022-12-23T00:24:08.627Z,193.52
2022-12-23T00:24:31.308Z,178.43
2022-12-23T00:24:54.019Z,224.13
2022-12-23T00:25:16.840Z,175.02
2022-12-23T00:25:42.431Z,126.07
2022-12-23T00:26:05.682Z,152.95
2022-12-23T00:26:28.544Z,194.70
2022-12-23T00:26:51.251Z,370.67
2022-12-23T00:27:13.981Z,336.02
2022-12-23T00:27:37.808Z,457.73
2022-12-23T00:28:04.133Z,349.45
2022-12-23T00:28:27.211Z,138.20
2022-12-23T00:28:51.498Z,166.90
2022-12-23T00:29:14.438Z,184.25
2022-12-23T00:29:37.159Z,148.07
2022-12-23T00:29:59.879Z,162.25
2022-12-23T00:30:22.717Z,179.65
2022-12-23T00:30:47.303Z,217.00
2022-12-23T00:31:12.592Z,159.95
2022-12-23T00:31:35.454Z,180.30
2022-12-23T00:31:58.314Z,196.95
2022-12-23T00:32:21.104Z,170.68
2022-12-23T00:32:44.793Z,159.55
2022-12-23T00:33:07.697Z,179.18
2022-12-23T00:33:31.218Z,154.48
2022-12-23T00:33:54.556Z,152.60
2022-12-23T00:34:17.540Z,174.73
2022-12-23T00:34:40.263Z,142.27
2022-12-23T00:35:02.993Z,163.13
2022-12-23T00:35:25.677Z,224.88
2022-12-23T00:35:48.462Z,431.60
2022-12-23T00:36:12.912Z,383.08
2022-12-23T00:36:37.645Z,274.42
2022-12-23T00:37:00.399Z,283.42
2022-12-23T00:37:23.240Z,141.10
2022-12-23T00:37:46.053Z,152.63
2022-12-23T00:38:08.829Z,172.48
2022-12-23T00:38:50.107Z,169.32
2022-12-23T00:39:31.466Z,378.58
2022-12-23T00:40:12.859Z,305.45
2022-12-23T00:40:54.508Z,221.23
2022-12-23T00:41:36.898Z,217.05
2022-12-23T00:42:18.107Z,167.65
2022-12-23T00:42:55.799Z,277.77
2022-12-23T00:43:18.638Z,120.32
2022-12-23T00:43:41.375Z,107.05
2022-12-23T00:44:05.692Z,122.40
2022-12-23T00:44:28.556Z,110.13
2022-12-23T00:44:51.320Z,100.40
2022-12-23T00:45:17.588Z,94.10
2022-12-23T00:45:40.414Z,100.80
2022-12-23T00:46:03.240Z,118.25
2022-12-23T00:46:26.187Z,110.78
2022-12-23T00:46:49.290Z,103.43
2022-12-23T00:47:32.030Z,89.72
2022-12-23T00:48:13.668Z,110.05
2022-12-23T00:48:55.068Z,101.35
2022-12-23T00:49:37.006Z,114.43
2022-12-23T00:49:59.854Z,121.68
2022-12-23T00:50:22.623Z,132.05
2022-12-23T00:50:46.509Z,149.15
2022-12-23T00:51:09.295Z,293.50
2022-12-23T00:51:32.117Z,193.65
2022-12-23T00:51:54.826Z,173.93
2022-12-23T00:52:17.714Z,188.25
2022-12-23T00:52:40.488Z,263.60
2022-12-23T00:53:03.538Z,319.50
2022-12-23T00:53:26.316Z,106.53
2022-12-23T00:53:49.112Z,113.28
2022-12-23T00:54:11.910Z,131.15
2022-12-23T00:54:34.706Z,117.15
2022-12-23T00:54:57.499Z,108.53
2022-12-23T00:55:20.172Z,118.82
2022-12-23T00:55:42.988Z,148.27
2022-12-23T00:56:06.108Z,129.02
2022-12-23T00:56:28.988Z,256.85
2022-12-23T00:56:51.692Z,288.50
2022-12-23T00:57:14.588Z,202.82
2022-12-23T00:57:37.427Z,201.05
2022-12-23T00:58:00.219Z,108.97
2022-12-23T00:58:23.129Z,212.75
2022-12-23T00:58:45.946Z,334.63
2022-12-23T00:59:10.162Z,175.27
2022-12-23T00:59:33.410Z,148.57
2022-12-23T00:59:56.149Z,215.27
2022-12-23T01:00:19.639Z,185.95
2022-12-23T01:01:00.895Z,156.20
2022-12-23T01:01:42.269Z,160.48
2022-12-23T01:02:24.258Z,148.02
2022-12-23T01:03:05.506Z,109.30
2022-12-23T01:03:47.403Z,175.82
2022-12-23T01:04:29.879Z,90.15
2022-12-23T01:05:12.557Z,312.10
2022-12-23T01:05:38.735Z,454.95
2022-12-23T01:06:01.953Z,481.20
2022-12-23T01:06:24.733Z,313.48
2022-12-23T01:06:47.589Z,414.63
2022-12-23T01:07:10.493Z,254.88
2022-12-23T01:07:33.297Z,228.10
2022-12-23T01:07:56.265Z,183.07
2022-12-23T01:08:19.051Z,161.55
2022-12-23T01:08:41.871Z,118.97
2022-12-23T01:09:04.739Z,157.48
2022-12-23T01:09:27.539Z,257.55
2022-12-23T01:09:50.313Z,154.80
2022-12-23T01:10:13.360Z,163.98
2022-12-23T01:10:36.194Z,142.70
2022-12-23T01:11:03.237Z,105.57
2022-12-23T01:11:26.207Z,132.73
2022-12-23T01:11:48.967Z,172.43
2022-12-23T01:12:11.727Z,245.65
2022-12-23T01:12:34.514Z,169.13
2022-12-23T01:12:57.393Z,155.80
2022-12-23T01:13:20.184Z,144.15
2022-12-23T01:13:43.033Z,229.07
2022-12-23T01:14:05.916Z,225.70
2022-12-23T01:14:30.197Z,95.35
2022-12-23T01:14:53.138Z,143.63
2022-12-23T01:15:16.013Z,112.38
2022-12-23T01:15:38.747Z,135.73
2022-12-23T01:16:01.605Z,84.38
2022-12-23T01:16:24.458Z,105.85
2022-12-23T01:16:47.332Z,108.43
2022-12-23T01:17:10.344Z,85.90
2022-12-23T01:17:33.302Z,98.03
2022-12-23T01:17:55.986Z,162.05
2022-12-23T01:18:18.746Z,101.90
2022-12-23T01:18:41.797Z,90.60
2022-12-23T01:19:04.694Z,95.53
2022-12-23T01:19:28.099Z,96.75
2022-12-23T01:19:51.885Z,135.23
2022-12-23T01:20:14.815Z,102.25
2022-12-23T01:20:39.999Z,87.13
2022-12-23T01:21:03.572Z,88.85
2022-12-23T01:21:26.300Z,79.43
2022-12-23T01:21:49.074Z,77.38
2022-12-23T01:22:11.865Z,77.50
2022-12-23T01:22:34.790Z,77.35
2022-12-23T01:22:57.564Z,90.97
2022-12-23T01:23:20.418Z,132.07
2022-12-23T01:23:43.218Z,134.77
2022-12-23T01:24:06.424Z,158.07
2022-12-23T01:24:29.419Z,172.65
2022-12-23T01:24:52.241Z,124.25
2022-12-23T01:25:15.293Z,128.88
2022-12-23T01:25:40.981Z,202.32
2022-12-23T01:26:05.209Z,151.02
2022-12-23T01:26:28.030Z,162.15
2022-12-23T01:26:50.833Z,174.15
2022-12-23T01:27:13.633Z,138.25
2022-12-23T01:27:36.497Z,125.07
2022-12-23T01:27:59.431Z,110.90
2022-12-23T01:28:22.349Z,131.55
2022-12-23T01:28:45.244Z,142.88
2022-12-23T01:29:08.100Z,117.20
2022-12-23T01:29:32.489Z,68.53
2022-12-23T01:29:55.311Z,70.22
2022-12-23T01:30:18.102Z,87.85
2022-12-23T01:30:40.829Z,108.10
2022-12-23T01:31:04.365Z,99.57
2022-12-23T01:31:27.530Z,116.43
2022-12-23T01:31:50.472Z,105.10
2022-12-23T01:32:13.374Z,98.63
2022-12-23T01:32:36.198Z,139.48
2022-12-23T01:32:58.941Z,118.50
2022-12-23T01:33:21.780Z,88.30
2022-12-23T01:33:46.175Z,77.38
2022-12-23T01:34:09.149Z,66.70
2022-12-23T01:34:36.675Z,108.43
2022-12-23T01:35:00.045Z,106.28
2022-12-23T01:35:22.884Z,91.93
2022-12-23T01:35:45.613Z,92.82
2022-12-23T01:36:09.524Z,77.53
2022-12-23T01:36:32.283Z,79.35
2022-12-23T01:36:54.978Z,84.72
2022-12-23T01:37:17.801Z,75.05
2022-12-23T01:37:40.617Z,72.20
2022-12-23T01:38:03.460Z,62.40
2022-12-23T01:38:26.179Z,61.58
2022-12-23T01:38:49.369Z,64.32
2022-12-23T01:39:12.175Z,57.17
2022-12-23T01:39:37.308Z,59.70
2022-12-23T01:40:00.080Z,59.17
2022-12-23T01:40:22.867Z,57.95
2022-12-23T01:40:45.853Z,58.17
2022-12-23T01:41:08.624Z,50.97
2022-12-23T01:41:51.184Z,52.85
2022-12-23T01:42:33.518Z,53.92
2022-12-23T01:42:56.257Z,47.53
2022-12-23T01:43:19.698Z,52.08
2022-12-23T01:43:45.692Z,63.65
2022-12-23T01:44:41.617Z,57.53
2022-12-23T01:45:10.424Z,65.35
2022-12-23T01:45:33.382Z,70.07
2022-12-23T01:45:56.218Z,62.30
2022-12-23T01:46:19.091Z,61.80
2022-12-23T01:46:41.879Z,64.47
2022-12-23T01:47:05.467Z,61.67
2022-12-23T01:47:32.168Z,64.93
2022-12-23T01:47:55.975Z,64.75
2022-12-23T01:48:23.059Z,71.55
2022-12-23T01:48:47.035Z,61.65
2022-12-23T01:49:09.976Z,63.45
2022-12-23T01:49:32.749Z,67.72
2022-12-23T01:49:57.261Z,63.03
2022-12-23T01:50:24.419Z,57.97
2022-12-23T01:50:49.015Z,55.20
2022-12-23T01:51:13.459Z,49.90
2022-12-23T01:51:37.208Z,45.17
2022-12-23T01:51:59.880Z,47.97
2022-12-23T01:52:22.698Z,50.05
2022-12-23T01:52:48.099Z,48.65
2022-12-23T01:53:13.070Z,45.67
2022-12-23T01:53:37.273Z,44.92
2022-12-23T01:54:01.351Z,45.38
2022-12-23T01:54:24.190Z,52.30
2022-12-23T01:54:47.728Z,48.63
2022-12-23T01:55:10.511Z,47.45
2022-12-23T01:55:35.545Z,44.17
2022-12-23T01:55:59.518Z,44.53
2022-12-23T01:56:24.788Z,49.83
2022-12-23T01:56:47.599Z,64.65
2022-12-23T01:57:10.454Z,63.47
2022-12-23T01:57:33.318Z,54.70
2022-12-23T01:57:57.143Z,55.80
2022-12-23T01:58:21.531Z,55.60
2022-12-23T01:58:48.669Z,62.70
2022-12-23T01:59:36.268Z,70.18
2022-12-23T02:00:17.939Z,56.78
2022-12-23T02:01:02.142Z,45.47
2022-12-23T02:01:43.803Z,46.10
2022-12-23T02:02:22.578Z,45.67
2022-12-23T02:03:04.284Z,44.60
2022-12-23T02:03:43.014Z,55.58
2022-12-23T02:04:07.719Z,53.25
2022-12-23T02:04:30.528Z,58.08
2022-12-23T02:04:53.609Z,55.25
2022-12-23T02:05:16.945Z,53.25
2022-12-23T02:05:39.865Z,48.92
2022-12-23T02:06:22.584Z,47.80
2022-12-23T02:07:05.440Z,60.92
2022-12-23T02:07:47.089Z,58.92
2022-12-23T02:08:25.474Z,58.10
2022-12-23T02:09:07.182Z,55.38
2022-12-23T02:09:31.321Z,56.13
2022-12-23T02:09:54.125Z,55.63
2022-12-23T02:10:17.019Z,52.03
2022-12-23T02:10:47.070Z,54.75
2022-12-23T02:11:22.375Z,50.28
2022-12-23T02:12:06.761Z,59.20
2022-12-23T02:12:37.903Z,64.30
2022-12-23T02:13:01.104Z,66.55
2022-12-23T02:13:25.622Z,60.45
2022-12-23T02:14:10.198Z,54.13
2022-12-23T02:14:59.379Z,61.08
2022-12-23T02:15:49.889Z,49.92
2022-12-23T02:16:17.139Z,44.88
2022-12-23T02:16:43.279Z,50.53
2022-12-23T02:17:09.150Z,48.30
2022-12-23T02:17:36.058Z,47.28
2022-12-23T02:18:06.108Z,46.20
2022-12-23T02:18:58.702Z,44.42
2022-12-23T02:19:28.399Z,46.08
2022-12-23T02:20:13.183Z,46.25
2022-12-23T02:21:14.594Z,48.72
2022-12-23T02:21:46.593Z,44.28
2022-12-23T02:22:19.001Z,43.60
2022-12-23T02:23:01.946Z,41.25
2022-12-23T02:23:57.258Z,45.08
2022-12-23T02:24:52.403Z,43.40
2022-12-23T02:25:44.976Z,45.17
2022-12-23T02:26:16.843Z,44.35
2022-12-23T02:26:55.398Z,45.25
2022-12-23T02:27:24.043Z,47.40
2022-12-23T02:27:54.659Z,43.72
2022-12-23T02:28:30.111Z,45.13
2022-12-23T02:29:08.818Z,45.08
2022-12-23T02:30:26.138Z,52.95
2022-12-23T02:30:52.549Z,54.50
2022-12-23T02:31:18.249Z,54.78
2022-12-23T02:31:44.119Z,54.85
2022-12-23T02:32:09.953Z,52.30
2022-12-23T02:32:44.619Z,54.83
2022-12-23T02:33:30.455Z,58.58
2022-12-23T02:33:56.821Z,57.45
2022-12-23T02:34:20.202Z,59.63
2022-12-23T02:34:46.737Z,61.92
2022-12-23T02:35:12.491Z,57.83
2022-12-23T02:35:38.344Z,58.70
2022-12-23T02:36:08.345Z,61.75
2022-12-23T02:36:37.655Z,55.85
2022-12-23T02:37:11.110Z,60.25
2022-12-23T02:37:35.988Z,60.20
2022-12-23T02:38:02.646Z,52.65
2022-12-23T02:38:29.037Z,51.85
2022-12-23T02:38:57.049Z,58.90
2022-12-23T02:39:22.742Z,53.10
2022-12-23T02:39:48.497Z,49.28
2022-12-23T02:40:13.497Z,52.42
2022-12-23T02:40:39.823Z,54.22
2022-12-23T02:41:07.121Z,57.53
2022-12-23T02:41:33.172Z,58.35
2022-12-23T02:42:04.508Z,54.80
2022-12-23T02:42:31.392Z,56.17
2022-12-23T02:42:59.212Z,56.60
2022-12-23T02:43:26.739Z,53.53
2022-12-23T02:43:51.711Z,53.80
2022-12-23T02:44:23.763Z,51.72
2022-12-23T02:44:48.067Z,54.10
2022-12-23T02:45:12.023Z,56.28
2022-12-23T02:45:37.885Z,59.05
2022-12-23T02:46:05.351Z,57.25
2022-12-23T02:46:31.865Z,56.88
2022-12-23T02:46:57.043Z,53.33
2022-12-23T02:47:21.622Z,56.30
2022-12-23T02:47:47.083Z,53.40
2022-12-23T02:48:12.503Z,51.85
2022-12-23T02:48:37.218Z,57.53
2022-12-23T02:49:02.500Z,58.20
2022-12-23T02:49:28.099Z,55.10
2022-12-23T02:49:52.373Z,58.22
2022-12-23T02:50:17.620Z,59.47
2022-12-23T02:50:40.577Z,53.75
2022-12-23T02:51:03.412Z,51.10
2022-12-23T02:51:29.380Z,46.88
2022-12-23T02:51:54.125Z,51.83
2022-12-23T02:52:17.398Z,52.15
2022-12-23T02:52:40.182Z,51.15
2022-12-23T02:53:06.344Z,51.55
2022-12-23T02:53:31.217Z,50.35
2022-12-23T02:53:55.910Z,50.40
2022-12-23T02:54:22.453Z,52.00
2022-12-23T02:54:46.182Z,49.70
2022-12-23T02:55:10.861Z,48.75
2022-12-23T02:55:35.083Z,52.55
2022-12-23T02:55:57.947Z,49.08
2022-12-23T02:56:20.738Z,45.63
2022-12-23T02:56:45.552Z,46.95
2022-12-23T02:57:08.457Z,48.88
2022-12-23T02:57:33.954Z,49.40
2022-12-23T02:57:56.667Z,48.50
2022-12-23T02:58:24.446Z,51.58
2022-12-23T02:58:49.447Z,47.75
2022-12-23T02:59:14.947Z,50.95
2022-12-23T02:59:41.186Z,51.50
2022-12-23T03:00:04.653Z,49.55
2022-12-23T03:00:27.416Z,50.67
2022-12-23T03:00:50.255Z,48.97
2022-12-23T03:01:15.116Z,48.53
2022-12-23T03:01:38.067Z,56.67
2022-12-23T03:02:01.065Z,53.65
2022-12-23T03:02:24.103Z,55.00
2022-12-23T03:02:47.509Z,55.72
2022-12-23T03:03:10.833Z,56.20
2022-12-23T03:03:33.714Z,58.10
2022-12-23T03:03:56.727Z,53.38
2022-12-23T03:04:19.842Z,54.38
2022-12-23T03:04:42.586Z,53.13
2022-12-23T03:05:06.595Z,54.50
2022-12-23T03:05:32.823Z,52.38
2022-12-23T03:05:55.618Z,52.85
2022-12-23T03:06:22.227Z,51.22
2022-12-23T03:06:46.097Z,53.95
2022-12-23T03:07:15.137Z,51.38
2022-12-23T03:07:42.421Z,55.55
2022-12-23T03:08:06.917Z,54.00
2022-12-23T03:08:32.361Z,50.80
2022-12-23T03:08:56.347Z,48.05
2022-12-23T03:09:24.998Z,46.05
2022-12-23T03:09:52.690Z,49.58
2022-12-23T03:10:18.976Z,47.58
2022-12-23T03:10:47.702Z,47.33
2022-12-23T03:11:11.567Z,47.35
2022-12-23T03:11:40.503Z,45.88
2022-12-23T03:12:06.144Z,44.33
2022-12-23T03:12:34.139Z,43.88
2022-12-23T03:13:01.569Z,45.25
2022-12-23T03:13:30.577Z,45.33
2022-12-23T03:14:06.097Z,43.30
2022-12-23T03:14:39.380Z,41.22
2022-12-23T03:15:12.275Z,42.78
2022-12-23T03:15:38.302Z,41.15
2022-12-23T03:16:07.288Z,41.95
2022-12-23T03:16:35.602Z,45.88
2022-12-23T03:17:04.342Z,41.80
2022-12-23T03:17:38.962Z,42.97
2022-12-23T03:18:05.251Z,43.03
2022-12-23T03:18:31.160Z,42.38
2022-12-23T03:19:03.564Z,44.40
2022-12-23T03:19:32.567Z,46.55
2022-12-23T03:19:59.057Z,45.83
2022-12-23T03:20:24.819Z,42.22
2022-12-23T03:20:50.917Z,45.47
2022-12-23T03:21:17.183Z,45.40
2022-12-23T03:21:42.424Z,45.97
2022-12-23T03:22:08.732Z,44.70
2022-12-23T03:22:35.707Z,44.35
2022-12-23T03:23:01.947Z,47.35
2022-12-23T03:23:26.801Z,47.45
2022-12-23T03:23:55.531Z,46.75
2022-12-23T03:24:23.079Z,45.78
2022-12-23T03:24:49.063Z,45.90
2022-12-23T03:25:13.604Z,45.20
2022-12-23T03:25:39.226Z,47.00
2022-12-23T03:26:03.617Z,46.75
2022-12-23T03:26:28.248Z,42.97
2022-12-23T03:26:54.422Z,46.47
2022-12-23T03:27:18.483Z,44.10
2022-12-23T03:27:43.220Z,47.58
2022-12-23T03:28:09.190Z,52.10
2022-12-23T03:28:34.338Z,47.50
2022-12-23T03:28:58.811Z,45.58
2022-12-23T03:29:25.392Z,43.63
2022-12-23T03:29:53.138Z,49.83
2022-12-23T03:30:17.054Z,46.00
2022-12-23T03:30:41.018Z,47.53
2022-12-23T03:31:04.543Z,50.83
2022-12-23T03:31:31.757Z,46.92
2022-12-23T03:31:58.873Z,47.05
2022-12-23T03:32:21.647Z,43.90
2022-12-23T03:32:49.775Z,43.88
2022-12-23T03:33:13.950Z,42.05
2022-12-23T03:33:37.456Z,43.42
2022-12-23T03:34:01.728Z,43.00
2022-12-23T03:34:26.621Z,38.55
2022-12-23T03:34:50.292Z,37.03
2022-12-23T03:35:13.098Z,37.53
2022-12-23T03:35:38.111Z,37.17
2022-12-23T03:36:03.642Z,37.25
2022-12-23T03:36:28.666Z,45.90
2022-12-23T03:36:52.882Z,51.28
2022-12-23T03:37:16.656Z,50.10
2022-12-23T03:37:41.177Z,51.08
2022-12-23T03:38:04.489Z,51.28
2022-12-23T03:38:27.310Z,50.90
2022-12-23T03:38:50.110Z,49.38
2022-12-23T03:39:14.428Z,48.85
2022-12-23T03:39:41.177Z,48.50
2022-12-23T03:40:07.257Z,48.67
2022-12-23T03:40:32.096Z,48.35
2022-12-23T03:40:56.374Z,51.15
2022-12-23T03:41:20.751Z,44.45
2022-12-23T03:41:45.468Z,41.60
2022-12-23T03:42:11.310Z,44.13
2022-12-23T03:42:37.772Z,43.53
2022-12-23T03:43:01.790Z,44.00
2022-12-23T03:43:26.418Z,44.45
2022-12-23T03:43:51.708Z,43.15
2022-12-23T03:44:16.247Z,44.13
2022-12-23T03:44:51.782Z,43.40
2022-12-23T03:45:40.304Z,45.60
2022-12-23T03:46:05.838Z,46.95
2022-12-23T03:46:32.831Z,44.30
2022-12-23T03:46:57.739Z,47.80
2022-12-23T03:47:24.289Z,44.90
2022-12-23T03:47:49.537Z,46.10
2022-12-23T03:48:15.732Z,47.53
2022-12-23T03:48:40.016Z,46.30
2022-12-23T03:49:05.807Z,44.92
2022-12-23T03:49:31.004Z,40.50
2022-12-23T03:49:55.329Z,41.55
2022-12-23T03:50:18.532Z,42.58
2022-12-23T03:50:41.816Z,42.80
2022-12-23T03:51:06.581Z,41.65
2022-12-23T03:51:32.207Z,40.83
2022-12-23T03:51:57.821Z,40.50
2022-12-23T03:52:22.178Z,41.45
2022-12-23T03:52:47.342Z,38.33
2022-12-23T03:53:11.384Z,39.38
2022-12-23T03:53:35.644Z,44.10
2022-12-23T03:54:00.414Z,39.92
2022-12-23T03:54:25.624Z,40.67
2022-12-23T03:54:50.450Z,38.05
2022-12-23T03:55:16.179Z,42.03
2022-12-23T03:55:41.124Z,42.60
2022-12-23T03:56:06.772Z,43.97
2022-12-23T03:56:31.374Z,43.30
2022-12-23T03:56:57.408Z,39.83
2022-12-23T03:57:20.399Z,42.45
2022-12-23T03:57:45.628Z,40.00
2022-12-23T03:58:12.029Z,39.33
2022-12-23T03:58:37.463Z,39.90
2022-12-23T03:59:01.639Z,42.15
2022-12-23T03:59:25.799Z,39.50
2022-12-23T03:59:50.841Z,40.28
2022-12-23T04:00:14.209Z,42.70
2022-12-23T04:00:46.450Z,42.58
2022-12-23T04:01:12.669Z,42.05
2022-12-23T04:01:43.174Z,43.40
2022-12-23T04:02:08.509Z,42.80
2022-12-23T04:02:34.347Z,39.78
2022-12-23T04:02:59.601Z,43.40
2022-12-23T04:03:25.358Z,40.55
2022-12-23T04:03:52.061Z,41.95
2022-12-23T04:04:16.118Z,41.33
2022-12-23T04:04:51.743Z,41.35
2022-12-23T04:05:21.786Z,41.05
2022-12-23T04:05:45.781Z,44.10
2022-12-23T04:06:12.356Z,41.10
2022-12-23T04:06:37.068Z,38.65
2022-12-23T04:07:00.914Z,37.35
2022-12-23T04:07:25.783Z,40.42
2022-12-23T04:07:51.767Z,40.05
2022-12-23T04:08:16.681Z,43.60
2022-12-23T04:08:40.487Z,42.65
2022-12-23T04:09:03.278Z,38.13
2022-12-23T04:09:27.062Z,36.70
2022-12-23T04:09:50.087Z,37.63
2022-12-23T04:10:12.920Z,39.50
2022-12-23T04:10:36.653Z,39.03
2022-12-23T04:10:59.428Z,41.90
2022-12-23T04:11:22.192Z,42.42
2022-12-23T04:11:44.914Z,37.92
2022-12-23T04:12:07.827Z,39.30
2022-12-23T04:12:31.012Z,43.33
2022-12-23T04:12:53.698Z,44.25
2022-12-23T04:13:16.499Z,41.30
2022-12-23T04:13:39.462Z,41.97
2022-12-23T04:14:04.787Z,44.40
2022-12-23T04:14:27.543Z,43.95
2022-12-23T04:14:50.409Z,43.80
2022-12-23T04:15:13.643Z,46.03
2022-12-23T04:15:39.779Z,50.95
2022-12-23T04:16:02.710Z,47.30
2022-12-23T04:16:25.581Z,46.28
2022-12-23T04:16:50.895Z,44.42
2022-12-23T04:17:13.705Z,44.25
2022-12-23T04:17:36.562Z,41.67
2022-12-23T04:17:59.311Z,40.67
2022-12-23T04:18:22.026Z,42.88
2022-12-23T04:18:44.749Z,43.33
2022-12-23T04:19:07.531Z,43.78
2022-12-23T04:19:30.317Z,42.47
2022-12-23T04:19:53.152Z,45.22
2022-12-23T04:20:16.347Z,44.30
2022-12-23T04:20:39.126Z,42.25
2022-12-23T04:21:01.891Z,41.70
2022-12-23T04:21:24.658Z,42.95
2022-12-23T04:21:47.484Z,41.88
2022-12-23T04:22:12.727Z,43.00
2022-12-23T04:22:35.604Z,40.45
2022-12-23T04:22:58.427Z,40.70
2022-12-23T04:23:21.185Z,41.53
2022-12-23T04:23:44.063Z,40.05
2022-12-23T04:24:07.079Z,43.90
2022-12-23T04:24:30.039Z,44.50
2022-12-23T04:24:53.957Z,44.78
2022-12-23T04:25:17.256Z,47.67
2022-12-23T04:25:40.162Z,46.42
2022-12-23T04:26:02.987Z,44.42
2022-12-23T04:26:25.783Z,44.88
2022-12-23T04:26:48.525Z,46.95
2022-12-23T04:27:12.502Z,46.10
2022-12-23T04:27:35.302Z,45.70
2022-12-23T04:27:58.114Z,47.90
2022-12-23T04:28:20.926Z,50.17
2022-12-23T04:28:43.627Z,50.72
2022-12-23T04:29:06.423Z,51.55
2022-12-23T04:29:29.226Z,46.80
2022-12-23T04:29:51.925Z,47.90
2022-12-23T04:30:14.936Z,48.10
2022-12-23T04:30:37.739Z,47.30
2022-12-23T04:31:00.461Z,49.58
2022-12-23T04:31:23.379Z,47.67
2022-12-23T04:31:46.412Z,49.45
2022-12-23T04:32:10.744Z,50.35
2022-12-23T04:32:33.465Z,48.30
2022-12-23T04:32:56.199Z,46.75
2022-12-23T04:33:19.069Z,46.35
2022-12-23T04:33:41.859Z,46.63
2022-12-23T04:34:07.059Z,44.58
2022-12-23T04:34:29.856Z,45.92
2022-12-23T04:34:52.638Z,44.58
2022-12-23T04:35:15.533Z,44.97
2022-12-23T04:35:38.377Z,43.58
2022-12-23T04:36:01.211Z,42.28
2022-12-23T04:36:23.961Z,43.97
2022-12-23T04:36:46.808Z,44.58
2022-12-23T04:37:10.515Z,43.33
2022-12-23T04:37:33.355Z,44.70
2022-12-23T04:37:56.405Z,44.22
2022-12-23T04:38:19.227Z,44.80
2022-12-23T04:38:42.217Z,44.20
2022-12-23T04:39:05.229Z,42.78
2022-12-23T04:39:28.168Z,46.03
2022-12-23T04:39:50.940Z,42.67
2022-12-23T04:40:14.139Z,42.55
2022-12-23T04:40:37.105Z,39.95
2022-12-23T04:41:00.032Z,39.78
2022-12-23T04:41:24.402Z,38.90
2022-12-23T04:41:47.460Z,40.13
2022-12-23T04:42:10.464Z,42.83
2022-12-23T04:42:33.268Z,41.92
2022-12-23T04:42:56.223Z,40.03
2022-12-23T04:43:19.169Z,40.38
2022-12-23T04:43:42.062Z,41.15
2022-12-23T04:44:05.189Z,41.75
2022-12-23T04:44:28.139Z,41.05
2022-12-23T04:44:51.443Z,41.53
2022-12-23T04:45:15.462Z,42.50
2022-12-23T04:45:38.185Z,42.75
2022-12-23T04:46:00.896Z,42.40
2022-12-23T04:46:23.737Z,41.22
2022-12-23T04:46:46.678Z,42.83
2022-12-23T04:47:11.238Z,45.58
2022-12-23T04:47:34.015Z,44.42
2022-12-23T04:47:59.987Z,43.42
2022-12-23T04:48:22.773Z,43.72
2022-12-23T04:48:45.577Z,42.95
2022-12-23T04:49:08.508Z,43.72
2022-12-23T04:49:31.372Z,45.15
2022-12-23T04:49:54.221Z,46.65
2022-12-23T04:50:17.179Z,45.35
2022-12-23T04:50:40.089Z,44.97
2022-12-23T04:51:03.028Z,47.17
2022-12-23T04:51:25.876Z,49.25
2022-12-23T04:51:48.706Z,52.60
2022-12-23T04:52:14.702Z,50.88
2022-12-23T04:52:37.783Z,45.85
2022-12-23T04:53:00.657Z,47.30
2022-12-23T04:53:23.592Z,51.55
2022-12-23T04:53:46.433Z,52.33
2022-12-23T04:54:09.217Z,48.55
2022-12-23T04:54:36.444Z,43.28
2022-12-23T04:55:02.331Z,49.22
2022-12-23T04:55:25.230Z,47.97
2022-12-23T04:55:51.309Z,47.70
2022-12-23T04:56:14.211Z,51.63
2022-12-23T04:56:36.977Z,49.75
2022-12-23T04:57:00.066Z,49.05
2022-12-23T04:57:22.828Z,47.35
2022-12-23T04:57:45.686Z,48.30
2022-12-23T04:58:08.496Z,47.67
2022-12-23T04:58:31.245Z,47.15
2022-12-23T04:58:54.094Z,46.13
2022-12-23T04:59:16.892Z,47.35
2022-12-23T04:59:39.671Z,49.10
2022-12-23T05:00:02.512Z,50.30
2022-12-23T05:00:25.333Z,50.30
2022-12-23T05:00:48.185Z,46.00
2022-12-23T05:01:11.350Z,45.03
2022-12-23T05:01:37.540Z,47.85
2022-12-23T05:02:01.182Z,47.10
2022-12-23T05:02:26.232Z,46.85
2022-12-23T05:02:49.301Z,45.97
2022-12-23T05:03:12.362Z,45.70
2022-12-23T05:03:35.348Z,44.78
2022-12-23T05:03:58.261Z,46.30
2022-12-23T05:04:21.048Z,45.22
2022-12-23T05:04:43.902Z,45.92
2022-12-23T05:05:07.302Z,46.58
2022-12-23T05:05:30.102Z,43.55
2022-12-23T05:05:52.996Z,42.25
2022-12-23T05:06:16.107Z,44.08
2022-12-23T05:06:38.941Z,44.58
2022-12-23T05:07:01.713Z,44.53
2022-12-23T05:07:24.563Z,46.30
2022-12-23T05:07:49.454Z,44.80
2022-12-23T05:08:12.302Z,43.10
2022-12-23T05:08:35.090Z,43.55
2022-12-23T05:08:57.862Z,44.80
2022-12-23T05:09:20.838Z,43.42
2022-12-23T05:09:43.661Z,42.58
2022-12-23T05:10:08.371Z,43.15
2022-12-23T05:10:31.116Z,40.67
2022-12-23T05:10:53.983Z,41.15
2022-12-23T05:11:16.812Z,42.50
2022-12-23T05:11:42.366Z,40.45
2022-12-23T05:12:05.552Z,38.05
2022-12-23T05:12:29.967Z,38.42
2022-12-23T05:12:52.708Z,39.35
2022-12-23T05:13:15.430Z,37.92
2022-12-23T05:13:38.376Z,39.10
2022-12-23T05:14:01.463Z,38.65
2022-12-23T05:14:24.385Z,38.20
2022-12-23T05:14:47.385Z,39.60
2022-12-23T05:15:11.329Z,40.40
2022-12-23T05:15:34.101Z,40.20
2022-12-23T05:15:56.876Z,40.55
2022-12-23T05:16:19.750Z,39.50
2022-12-23T05:16:45.502Z,41.95
2022-12-23T05:17:08.409Z,41.20
2022-12-23T05:17:32.710Z,40.20
2022-12-23T05:17:55.432Z,38.17
2022-12-23T05:18:18.311Z,39.45
2022-12-23T05:18:41.130Z,39.72
2022-12-23T05:19:04.015Z,40.10
2022-12-23T05:19:27.214Z,41.35
2022-12-23T05:19:50.191Z,39.15
2022-12-23T05:20:13.061Z,38.65
2022-12-23T05:20:36.946Z,41.17
2022-12-23T05:20:59.687Z,40.28
2022-12-23T05:21:22.431Z,38.28
2022-12-23T05:21:45.218Z,41.08
2022-12-23T05:22:09.100Z,41.78
2022-12-23T05:22:34.524Z,41.50
2022-12-23T05:22:57.200Z,42.05
2022-12-23T05:23:19.909Z,41.35
2022-12-23T05:23:42.645Z,40.67
2022-12-23T05:24:05.684Z,42.47
2022-12-23T05:24:28.470Z,44.63
2022-12-23T05:24:51.277Z,44.42
2022-12-23T05:25:14.073Z,44.53
2022-12-23T05:25:37.076Z,39.10
2022-12-23T05:25:59.837Z,44.92
2022-12-23T05:26:22.641Z,42.38
2022-12-23T05:26:55.686Z,41.85
2022-12-23T05:27:22.396Z,43.33
2022-12-23T05:27:45.164Z,39.67
2022-12-23T05:28:10.980Z,38.50
2022-12-23T05:28:33.931Z,39.67